sensor_id;sensor_type;location;lat;lon;timestamp;pressure;altitude;pressure_sealevel;temperature;humidity
71145;BME280;58812;47.698;17.726;2022-11-23T00:00:55;98884.22;;;2.85;100.00
71145;BME280;58812;47.698;17.726;2022-11-23T00:03:20;98878.94;;;2.85;100.00
71145;BME280;58812;47.698;17.726;2022-11-23T00:05:46;98887.56;;;2.87;100.00
71145;BME280;58812;47.698;17.726;2022-11-23T00:08:11;98879.47;;;2.89;100.00
71145;BME280;58812;47.698;17.726;2022-11-23T00:10:37;98874.19;;;2.89;100.00
71145;BME280;58812;47.698;17.726;2022-11-23T00:13:02;98875.03;;;2.89;100.00
71145;BME280;58812;47.698;17.726;2022-11-23T00:15:27;98878.41;;;2.91;100.00
71145;BME280;58812;47.698;17.726;2022-11-23T00:17:53;98880.91;;;2.93;100.00
71145;BME280;58812;47.698;17.726;2022-11-23T00:20:18;98868.91;;;2.89;100.00
71145;BME280;58812;47.698;17.726;2022-11-23T00:22:43;98873.13;;;2.91;100.00
71145;BME280;58812;47.698;17.726;2022-11-23T00:25:09;98872.00;;;2.94;100.00
71145;BME280;58812;47.698;17.726;2022-11-23T00:27:34;98878.13;;;2.94;100.00
71145;BME280;58812;47.698;17.726;2022-11-23T00:30:00;98865.87;;;2.93;100.00
71145;BME280;58812;47.698;17.726;2022-11-23T00:32:28;98861.28;;;2.95;100.00
71145;BME280;58812;47.698;17.726;2022-11-23T00:34:53;98871.75;;;2.97;100.00
71145;BME280;58812;47.698;17.726;2022-11-23T00:37:18;98863.69;;;2.99;100.00
71145;BME280;58812;47.698;17.726;2022-11-23T00:39:44;98847.38;;;2.93;100.00
71145;BME280;58812;47.698;17.726;2022-11-23T00:42:09;98854.78;;;3.00;100.00
71145;BME280;58812;47.698;17.726;2022-11-23T00:44:34;98853.81;;;3.01;100.00
71145;BME280;58812;47.698;17.726;2022-11-23T00:47:00;98864.22;;;3.02;100.00
71145;BME280;58812;47.698;17.726;2022-11-23T00:49:25;98857.16;;;3.03;100.00
71145;BME280;58812;47.698;17.726;2022-11-23T00:51:50;98854.53;;;3.03;100.00
71145;BME280;58812;47.698;17.726;2022-11-23T00:54:16;98844.78;;;3.03;100.00
71145;BME280;58812;47.698;17.726;2022-11-23T00:56:41;98857.84;;;3.05;100.00
71145;BME280;58812;47.698;17.726;2022-11-23T00:59:08;98857.84;;;3.05;100.00
71145;BME280;58812;47.698;17.726;2022-11-23T01:01:34;98856.19;;;3.04;100.00
71145;BME280;58812;47.698;17.726;2022-11-23T01:04:02;98856.75;;;3.07;100.00
71145;BME280;58812;47.698;17.726;2022-11-23T01:06:31;98859.53;;;3.06;100.00
71145;BME280;58812;47.698;17.726;2022-11-23T01:09:08;98864.81;;;3.06;100.00
71145;BME280;58812;47.698;17.726;2022-11-23T01:11:35;98857.56;;;3.08;100.00
71145;BME280;58812;47.698;17.726;2022-11-23T01:14:01;98855.75;;;3.08;100.00
71145;BME280;58812;47.698;17.726;2022-11-23T01:16:29;98851.75;;;3.04;100.00
71145;BME280;58812;47.698;17.726;2022-11-23T01:18:58;98851.47;;;3.07;100.00
71145;BME280;58812;47.698;17.726;2022-11-23T01:21:25;98847.97;;;3.07;100.00
71145;BME280;58812;47.698;17.726;2022-11-23T01:23:51;98842.00;;;3.05;100.00
71145;BME280;58812;47.698;17.726;2022-11-23T01:26:16;98841.72;;;3.08;100.00
71145;BME280;58812;47.698;17.726;2022-11-23T01:28:41;98848.69;;;3.09;100.00
71145;BME280;58812;47.698;17.726;2022-11-23T01:31:17;98855.66;;;3.10;100.00
71145;BME280;58812;47.698;17.726;2022-11-23T01:33:43;98843.41;;;3.09;100.00
71145;BME280;58812;47.698;17.726;2022-11-23T01:36:13;98843.28;;;3.10;100.00
71145;BME280;58812;47.698;17.726;2022-11-23T01:38:40;98843.41;;;3.09;100.00
71145;BME280;58812;47.698;17.726;2022-11-23T01:41:08;98839.50;;;3.13;100.00
71145;BME280;58812;47.698;17.726;2022-11-23T01:43:33;98837.84;;;3.12;100.00
71145;BME280;58812;47.698;17.726;2022-11-23T01:45:59;98829.91;;;3.12;100.00
71145;BME280;58812;47.698;17.726;2022-11-23T01:51:04;98834.94;;;3.15;100.00
71145;BME280;58812;47.698;17.726;2022-11-23T01:53:30;98833.97;;;3.16;100.00
71145;BME280;58812;47.698;17.726;2022-11-23T01:55:59;98836.63;;;3.16;100.00
71145;BME280;58812;47.698;17.726;2022-11-23T01:58:27;98840.91;;;3.17;100.00
71145;BME280;58812;47.698;17.726;2022-11-23T02:00:53;98837.31;;;3.18;100.00
71145;BME280;58812;47.698;17.726;2022-11-23T02:03:19;98832.16;;;3.16;100.00
71145;BME280;58812;47.698;17.726;2022-11-23T02:05:49;98834.66;;;3.18;100.00
71145;BME280;58812;47.698;17.726;2022-11-23T02:08:18;98835.34;;;3.20;100.00
71145;BME280;58812;47.698;17.726;2022-11-23T02:10:45;98844.25;;;3.19;100.00
71145;BME280;58812;47.698;17.726;2022-11-23T02:13:12;98836.47;;;3.17;100.00
71145;BME280;58812;47.698;17.726;2022-11-23T02:15:38;98845.94;;;3.20;100.00
71145;BME280;58812;47.698;17.726;2022-11-23T02:18:18;98841.34;;;3.22;100.00
71145;BME280;58812;47.698;17.726;2022-11-23T02:20:45;98846.66;;;3.22;100.00
71145;BME280;58812;47.698;17.726;2022-11-23T02:23:33;98841.91;;;3.16;100.00
71145;BME280;58812;47.698;17.726;2022-11-23T02:26:22;98843.03;;;3.23;100.00
71145;BME280;58812;47.698;17.726;2022-11-23T02:28:56;98849.28;;;3.22;100.00
71145;BME280;58812;47.698;17.726;2022-11-23T02:31:23;98841.22;;;3.24;100.00
71145;BME280;58812;47.698;17.726;2022-11-23T02:33:48;98839.53;;;3.22;100.00
71145;BME280;58812;47.698;17.726;2022-11-23T02:36:49;98845.66;;;3.23;100.00
71145;BME280;58812;47.698;17.726;2022-11-23T02:39:21;98844.69;;;3.24;100.00
71145;BME280;58812;47.698;17.726;2022-11-23T02:41:52;98847.34;;;3.24;100.00
71145;BME280;58812;47.698;17.726;2022-11-23T02:47:03;98850.72;;;3.26;100.00
71145;BME280;58812;47.698;17.726;2022-11-23T02:49:28;98844.44;;;3.27;100.00
71145;BME280;58812;47.698;17.726;2022-11-23T02:51:54;98854.03;;;3.28;100.00
71145;BME280;58812;47.698;17.726;2022-11-23T02:54:20;98848.75;;;3.28;100.00
71145;BME280;58812;47.698;17.726;2022-11-23T02:56:45;98862.41;;;3.33;100.00
71145;BME280;58812;47.698;17.726;2022-11-23T02:59:11;98853.75;;;3.31;100.00
71145;BME280;58812;47.698;17.726;2022-11-23T03:01:36;98852.09;;;3.30;100.00
71145;BME280;58812;47.698;17.726;2022-11-23T03:04:04;98866.97;;;3.31;100.00
71145;BME280;58812;47.698;17.726;2022-11-23T03:06:29;98871.31;;;3.32;100.00
71145;BME280;58812;47.698;17.726;2022-11-23T03:08:55;98873.00;;;3.33;100.00
71145;BME280;58812;47.698;17.726;2022-11-23T03:11:20;98865.06;;;3.33;100.00
71145;BME280;58812;47.698;17.726;2022-11-23T03:13:45;98863.38;;;3.32;100.00
71145;BME280;58812;47.698;17.726;2022-11-23T03:16:11;98852.09;;;3.30;100.00
71145;BME280;58812;47.698;17.726;2022-11-23T03:18:36;98855.47;;;3.32;100.00
71145;BME280;58812;47.698;17.726;2022-11-23T03:21:03;98846.53;;;3.33;100.00
71145;BME280;58812;47.698;17.726;2022-11-23T03:23:30;98847.53;;;3.32;100.00
71145;BME280;58812;47.698;17.726;2022-11-23T03:25:56;98844.88;;;3.32;100.00
71145;BME280;58812;47.698;17.726;2022-11-23T03:28:21;98847.38;;;3.34;100.00
71145;BME280;58812;47.698;17.726;2022-11-23T03:30:47;98842.91;;;3.34;100.00
71145;BME280;58812;47.698;17.726;2022-11-23T03:33:12;98842.91;;;3.34;100.00
71145;BME280;58812;47.698;17.726;2022-11-23T03:35:38;98840.53;;;3.31;100.00
71145;BME280;58812;47.698;17.726;2022-11-23T03:38:04;98843.75;;;3.35;100.00
71145;BME280;58812;47.698;17.726;2022-11-23T03:40:29;98845.41;;;3.36;100.00
71145;BME280;58812;47.698;17.726;2022-11-23T03:42:54;98849.72;;;3.37;100.00
71145;BME280;58812;47.698;17.726;2022-11-23T03:45:20;98852.38;;;3.37;100.00
71145;BME280;58812;47.698;17.726;2022-11-23T03:47:45;98847.81;;;3.39;100.00
71145;BME280;58812;47.698;17.726;2022-11-23T03:50:11;98842.09;;;3.34;100.00
71145;BME280;58812;47.698;17.726;2022-11-23T03:52:36;98855.75;;;3.39;100.00
71145;BME280;58812;47.698;17.726;2022-11-23T03:55:02;98858.25;;;3.40;100.00
71145;BME280;58812;47.698;17.726;2022-11-23T03:57:27;98857.28;;;3.41;100.00
71145;BME280;58812;47.698;17.726;2022-11-23T03:59:52;98864.38;;;3.41;100.00
71145;BME280;58812;47.698;17.726;2022-11-23T04:02:18;98864.38;;;3.41;100.00
71145;BME280;58812;47.698;17.726;2022-11-23T04:04:43;98863.53;;;3.40;100.00
71145;BME280;58812;47.698;17.726;2022-11-23T04:07:08;98858.25;;;3.40;100.00
71145;BME280;58812;47.698;17.726;2022-11-23T04:09:34;98860.91;;;3.40;100.00
71145;BME280;58812;47.698;17.726;2022-11-23T04:11:59;98863.41;;;3.42;100.00
71145;BME280;58812;47.698;17.726;2022-11-23T04:14:25;98863.53;;;3.40;100.00
71145;BME280;58812;47.698;17.726;2022-11-23T04:16:50;98866.44;;;3.37;100.00
71145;BME280;58812;47.698;17.726;2022-11-23T04:19:15;98867.41;;;3.36;100.00
71145;BME280;58812;47.698;17.726;2022-11-23T04:21:41;98864.09;;;3.34;100.00
71145;BME280;58812;47.698;17.726;2022-11-23T04:24:06;98863.25;;;3.34;100.00
71145;BME280;58812;47.698;17.726;2022-11-23T04:26:31;98874.66;;;3.34;100.00
71145;BME280;58812;47.698;17.726;2022-11-23T04:28:57;98873.00;;;3.33;100.00
71145;BME280;58812;47.698;17.726;2022-11-23T04:31:22;98866.88;;;3.33;100.00
71145;BME280;58812;47.698;17.726;2022-11-23T04:33:48;98869.78;;;3.30;100.00
71145;BME280;58812;47.698;17.726;2022-11-23T04:36:13;98864.34;;;3.31;100.00
71145;BME280;58812;47.698;17.726;2022-11-23T04:38:38;98869.91;;;3.28;100.00
71145;BME280;58812;47.698;17.726;2022-11-23T04:41:04;98881.47;;;3.27;100.00
71145;BME280;58812;47.698;17.726;2022-11-23T04:43:29;98886.47;;;3.30;100.00
71145;BME280;58812;47.698;17.726;2022-11-23T04:45:56;98886.47;;;3.30;100.00
71145;BME280;58812;47.698;17.726;2022-11-23T04:48:21;98893.56;;;3.30;100.00
71145;BME280;58812;47.698;17.726;2022-11-23T04:50:47;98897.19;;;3.29;100.00
71145;BME280;58812;47.698;17.726;2022-11-23T04:53:12;98884.38;;;3.24;100.00
71145;BME280;58812;47.698;17.726;2022-11-23T04:55:38;98894.94;;;3.24;100.00
71145;BME280;58812;47.698;17.726;2022-11-23T04:58:03;98888.81;;;3.24;100.00
71145;BME280;58812;47.698;17.726;2022-11-23T05:00:28;98900.22;;;3.24;100.00
71145;BME280;58812;47.698;17.726;2022-11-23T05:02:54;98898.56;;;3.23;100.00
71145;BME280;58812;47.698;17.726;2022-11-23T05:05:19;98897.59;;;3.24;100.00
71145;BME280;58812;47.698;17.726;2022-11-23T05:07:45;98898.31;;;3.26;100.00
71145;BME280;58812;47.698;17.726;2022-11-23T05:10:10;98900.22;;;3.24;100.00
71145;BME280;58812;47.698;17.726;2022-11-23T05:12:35;98892.44;;;3.22;100.00
71145;BME280;58812;47.698;17.726;2022-11-23T05:15:02;98894.94;;;3.24;100.00
71145;BME280;58812;47.698;17.726;2022-11-23T05:17:28;98894.94;;;3.24;100.00
71145;BME280;58812;47.698;17.726;2022-11-23T05:19:53;98895.91;;;3.23;100.00
71145;BME280;58812;47.698;17.726;2022-11-23T05:22:20;98899.41;;;3.24;100.00
71145;BME280;58812;47.698;17.726;2022-11-23T05:24:45;98905.28;;;3.27;100.00
71145;BME280;58812;47.698;17.726;2022-11-23T05:27:11;98906.09;;;3.28;100.00
71145;BME280;58812;47.698;17.726;2022-11-23T05:29:36;98905.28;;;3.27;100.00
71145;BME280;58812;47.698;17.726;2022-11-23T05:32:02;98902.34;;;3.30;100.00
71145;BME280;58812;47.698;17.726;2022-11-23T05:34:27;98904.28;;;3.28;100.00
71145;BME280;58812;47.698;17.726;2022-11-23T05:36:53;98910.41;;;3.29;100.00
71145;BME280;58812;47.698;17.726;2022-11-23T05:39:18;98907.78;;;3.29;100.00
71145;BME280;58812;47.698;17.726;2022-11-23T05:41:44;98904.28;;;3.28;100.00
71145;BME280;58812;47.698;17.726;2022-11-23T05:44:09;98908.59;;;3.29;100.00
71145;BME280;58812;47.698;17.726;2022-11-23T05:46:34;98915.56;;;3.30;100.00
71145;BME280;58812;47.698;17.726;2022-11-23T05:49:00;98911.41;;;3.28;100.00
71145;BME280;58812;47.698;17.726;2022-11-23T05:51:25;98901.66;;;3.28;100.00
71145;BME280;58812;47.698;17.726;2022-11-23T05:53:51;98909.72;;;3.27;100.00
71145;BME280;58812;47.698;17.726;2022-11-23T05:56:16;98919.19;;;3.29;100.00
71145;BME280;58812;47.698;17.726;2022-11-23T05:58:41;98926.44;;;3.27;100.00
71145;BME280;58812;47.698;17.726;2022-11-23T06:01:07;98919.47;;;3.26;100.00
71145;BME280;58812;47.698;17.726;2022-11-23T06:03:32;98922.12;;;3.26;100.00
71145;BME280;58812;47.698;17.726;2022-11-23T06:05:57;98928.09;;;3.28;100.00
71145;BME280;58812;47.698;17.726;2022-11-23T06:08:23;98933.37;;;3.28;100.00
71145;BME280;58812;47.698;17.726;2022-11-23T06:10:48;98931.44;;;3.30;100.00
71145;BME280;58812;47.698;17.726;2022-11-23T06:13:13;98938.41;;;3.31;100.00
71145;BME280;58812;47.698;17.726;2022-11-23T06:15:39;98932.28;;;3.31;100.00
71145;BME280;58812;47.698;17.726;2022-11-23T06:18:04;98927.81;;;3.31;100.00
71145;BME280;58812;47.698;17.726;2022-11-23T06:20:30;98936.47;;;3.33;100.00
71145;BME280;58812;47.698;17.726;2022-11-23T06:22:55;98936.72;;;3.30;100.00
71145;BME280;58812;47.698;17.726;2022-11-23T06:25:21;98938.41;;;3.31;100.00
71145;BME280;58812;47.698;17.726;2022-11-23T06:30:18;98933.09;;;3.31;100.00
71145;BME280;58812;47.698;17.726;2022-11-23T06:32:44;98933.81;;;3.33;100.00
71145;BME280;58812;47.698;17.726;2022-11-23T06:35:09;98934.81;;;3.32;100.00
71145;BME280;58812;47.698;17.726;2022-11-23T06:37:34;98936.47;;;3.33;100.00
71145;BME280;58812;47.698;17.726;2022-11-23T06:40:00;98915.84;;;3.27;100.00
71145;BME280;58812;47.698;17.726;2022-11-23T06:42:25;98934.66;;;3.34;100.00
71145;BME280;58812;47.698;17.726;2022-11-23T06:44:51;98931.19;;;3.33;100.00
71145;BME280;58812;47.698;17.726;2022-11-23T06:47:16;98943.44;;;3.34;100.00
71145;BME280;58812;47.698;17.726;2022-11-23T06:49:41;98942.47;;;3.35;100.00
71145;BME280;58812;47.698;17.726;2022-11-23T06:52:07;98945.94;;;3.36;100.00
71145;BME280;58812;47.698;17.726;2022-11-23T06:54:32;98940.66;;;3.36;100.00
71145;BME280;58812;47.698;17.726;2022-11-23T06:56:58;98936.19;;;3.36;100.00
71145;BME280;58812;47.698;17.726;2022-11-23T06:59:23;98943.97;;;3.38;100.00
71145;BME280;58812;47.698;17.726;2022-11-23T07:01:48;98945.69;;;3.39;100.00
71145;BME280;58812;47.698;17.726;2022-11-23T07:04:15;98951.81;;;3.39;100.00
71145;BME280;58812;47.698;17.726;2022-11-23T07:06:40;98945.69;;;3.39;100.00
71145;BME280;58812;47.698;17.726;2022-11-23T07:09:05;98958.78;;;3.40;100.00
71145;BME280;58812;47.698;17.726;2022-11-23T07:11:31;98957.78;;;3.41;100.00
71145;BME280;58812;47.698;17.726;2022-11-23T07:13:56;98957.66;;;3.43;100.00
71145;BME280;58812;47.698;17.726;2022-11-23T07:16:22;98960.19;;;3.44;100.00
71145;BME280;58812;47.698;17.726;2022-11-23T07:18:47;98952.09;;;3.46;100.00
71145;BME280;58812;47.698;17.726;2022-11-23T07:21:13;98957.41;;;3.46;100.00
71145;BME280;58812;47.698;17.726;2022-11-23T07:23:38;98965.88;;;3.49;100.00
71145;BME280;58812;47.698;17.726;2022-11-23T07:26:07;98952.41;;;3.53;100.00
71145;BME280;58812;47.698;17.726;2022-11-23T07:28:32;98958.69;;;3.52;100.00
71145;BME280;58812;47.698;17.726;2022-11-23T07:30:57;98961.31;;;3.52;100.00
71145;BME280;58812;47.698;17.726;2022-11-23T07:33:23;98956.59;;;3.55;100.00
71145;BME280;58812;47.698;17.726;2022-11-23T07:35:48;98964.41;;;3.57;100.00
71145;BME280;58812;47.698;17.726;2022-11-23T07:38:14;98957.16;;;3.59;100.00
71145;BME280;58812;47.698;17.726;2022-11-23T07:40:39;98964.84;;;3.62;100.00
71145;BME280;58812;47.698;17.726;2022-11-23T07:43:05;98959.28;;;3.65;100.00
71145;BME280;58812;47.698;17.726;2022-11-23T07:45:32;98968.47;;;3.70;100.00
71145;BME280;58812;47.698;17.726;2022-11-23T07:48:02;98978.69;;;3.75;100.00
71145;BME280;58812;47.698;17.726;2022-11-23T07:50:28;98970.03;;;3.83;100.00
71145;BME280;58812;47.698;17.726;2022-11-23T07:52:54;98970.19;;;3.81;100.00
71145;BME280;58812;47.698;17.726;2022-11-23T07:55:20;98981.22;;;3.86;100.00
71145;BME280;58812;47.698;17.726;2022-11-23T07:57:45;98972.00;;;3.90;100.00
71145;BME280;58812;47.698;17.726;2022-11-23T08:00:11;98974.25;;;3.95;100.00
71145;BME280;58812;47.698;17.726;2022-11-23T08:02:37;98978.47;;;3.97;100.00
71145;BME280;58812;47.698;17.726;2022-11-23T08:05:02;98985.00;;;4.03;100.00
71145;BME280;58812;47.698;17.726;2022-11-23T08:07:28;98986.53;;;4.06;100.00
71145;BME280;58812;47.698;17.726;2022-11-23T08:09:53;98985.56;;;4.07;100.00
71145;BME280;58812;47.698;17.726;2022-11-23T08:12:19;98995.31;;;4.06;100.00
71145;BME280;58812;47.698;17.726;2022-11-23T08:14:44;98978.19;;;4.10;100.00
71145;BME280;58812;47.698;17.726;2022-11-23T08:17:09;98992.12;;;4.12;100.00
71145;BME280;58812;47.698;17.726;2022-11-23T08:19:35;98984.03;;;4.14;100.00
71145;BME280;58812;47.698;17.726;2022-11-23T08:22:00;98988.78;;;4.20;100.00
71145;BME280;58812;47.698;17.726;2022-11-23T08:24:25;98993.25;;;4.19;100.00
71145;BME280;58812;47.698;17.726;2022-11-23T08:26:51;98983.50;;;4.20;100.00
71145;BME280;58812;47.698;17.726;2022-11-23T08:29:16;98983.78;;;4.17;100.00
71145;BME280;58812;47.698;17.726;2022-11-23T08:31:42;98990.88;;;4.16;100.00
71145;BME280;58812;47.698;17.726;2022-11-23T08:34:08;98984.75;;;4.16;100.00
71145;BME280;58812;47.698;17.726;2022-11-23T08:36:33;98983.78;;;4.17;100.00
71145;BME280;58812;47.698;17.726;2022-11-23T08:38:59;98975.69;;;4.18;100.00
71145;BME280;58812;47.698;17.726;2022-11-23T08:41:24;98981.28;;;4.15;100.00
71145;BME280;58812;47.698;17.726;2022-11-23T08:43:50;98991.28;;;4.12;100.00
71145;BME280;58812;47.698;17.726;2022-11-23T08:46:16;98990.47;;;4.11;100.00
71145;BME280;58812;47.698;17.726;2022-11-23T08:48:41;98984.75;;;4.16;100.00
71145;BME280;58812;47.698;17.726;2022-11-23T08:51:08;98986.97;;;4.20;100.00
71145;BME280;58812;47.698;17.726;2022-11-23T08:53:34;98987.81;;;4.21;100.00
71145;BME280;58812;47.698;17.726;2022-11-23T08:56:00;98995.34;;;4.25;100.00
71145;BME280;58812;47.698;17.726;2022-11-23T08:58:26;98994.25;;;4.28;100.00
71145;BME280;58812;47.698;17.726;2022-11-23T09:00:51;98986.72;;;4.33;100.00
71145;BME280;58812;47.698;17.726;2022-11-23T09:03:17;98989.91;;;4.37;100.00
71145;BME280;58812;47.698;17.726;2022-11-23T09:05:42;98987.13;;;4.28;100.00
71145;BME280;58812;47.698;17.726;2022-11-23T09:08:08;98998.28;;;4.32;100.00
71145;BME280;58812;47.698;17.726;2022-11-23T09:10:33;98998.28;;;4.32;100.00
71145;BME280;58812;47.698;17.726;2022-11-23T09:12:59;98992.16;;;4.22;100.00
71145;BME280;58812;47.698;17.726;2022-11-23T09:15:24;99002.19;;;4.28;100.00
71145;BME280;58812;47.698;17.726;2022-11-23T09:17:49;98995.50;;;4.24;100.00
71145;BME280;58812;47.698;17.726;2022-11-23T09:20:15;99003.59;;;4.22;100.00
71145;BME280;58812;47.698;17.726;2022-11-23T09:22:40;98996.72;;;4.20;100.00
71145;BME280;58812;47.698;17.726;2022-11-23T09:25:06;99000.34;;;4.19;100.00
71145;BME280;58812;47.698;17.726;2022-11-23T09:27:32;98997.56;;;4.20;100.00
71145;BME280;58812;47.698;17.726;2022-11-23T09:29:58;98993.09;;;4.21;100.00
71145;BME280;58812;47.698;17.726;2022-11-23T09:32:23;98987.41;;;4.16;100.00
71145;BME280;58812;47.698;17.726;2022-11-23T09:34:48;98994.37;;;4.17;100.00
71145;BME280;58812;47.698;17.726;2022-11-23T09:37:14;98991.31;;;4.21;100.00
71145;BME280;58812;47.698;17.726;2022-11-23T09:39:40;98994.37;;;4.17;100.00
71145;BME280;58812;47.698;17.726;2022-11-23T09:50:47;98995.47;;;4.05;100.00
71145;BME280;58812;47.698;17.726;2022-11-23T09:53:35;98992.94;;;4.03;100.00
71145;BME280;58812;47.698;17.726;2022-11-23T09:56:05;98989.44;;;4.02;100.00
71145;BME280;58812;47.698;17.726;2022-11-23T09:58:39;98991.56;;;3.99;100.00
71145;BME280;58812;47.698;17.726;2022-11-23T10:01:13;98986.81;;;4.02;100.00
71145;BME280;58812;47.698;17.726;2022-11-23T10:03:42;98991.41;;;4.00;100.00
71145;BME280;58812;47.698;17.726;2022-11-23T10:06:20;98987.53;;;4.05;100.00
71145;BME280;58812;47.698;17.726;2022-11-23T10:11:46;98982.78;;;4.08;100.00
71145;BME280;58812;47.698;17.726;2022-11-23T10:20:06;98992.28;;;4.11;100.00
71145;BME280;58812;47.698;17.726;2022-11-23T10:22:42;98991.56;;;4.09;100.00
71145;BME280;58812;47.698;17.726;2022-11-23T10:25:16;98994.37;;;4.17;100.00
71145;BME280;58812;47.698;17.726;2022-11-23T10:27:44;98986.69;;;4.14;100.00
71145;BME280;58812;47.698;17.726;2022-11-23T10:30:11;98981.81;;;4.09;100.00
71145;BME280;58812;47.698;17.726;2022-11-23T10:32:49;98980.84;;;4.10;100.00
71145;BME280;58812;47.698;17.726;2022-11-23T10:35:27;98978.75;;;4.14;100.00
71145;BME280;58812;47.698;17.726;2022-11-23T10:38:07;98977.66;;;4.16;100.00
71145;BME280;58812;47.698;17.726;2022-11-23T10:40:34;98977.22;;;4.21;100.00
71145;BME280;58812;47.698;17.726;2022-11-23T10:43:13;98973.00;;;4.09;100.00
71145;BME280;58812;47.698;17.726;2022-11-23T10:45:41;98973.16;;;4.07;100.00
71145;BME280;58812;47.698;17.726;2022-11-23T10:48:06;98970.38;;;4.09;100.00
71145;BME280;58812;47.698;17.726;2022-11-23T10:50:36;98974.00;;;4.08;100.00
71145;BME280;58812;47.698;17.726;2022-11-23T10:55:33;98968.44;;;4.11;100.00
71145;BME280;58812;47.698;17.726;2022-11-23T10:58:26;98966.06;;;4.17;100.00
71145;BME280;58812;47.698;17.726;2022-11-23T11:01:04;98963.69;;;4.24;100.00
71145;BME280;58812;47.698;17.726;2022-11-23T11:03:32;98962.88;;;4.33;100.00
71145;BME280;58812;47.698;17.726;2022-11-23T11:05:59;98970.94;;;4.32;100.00
71145;BME280;58812;47.698;17.726;2022-11-23T11:08:29;98971.22;;;4.38;100.00
71145;BME280;58812;47.698;17.726;2022-11-23T11:11:06;98961.47;;;4.39;100.00
71145;BME280;58812;47.698;17.726;2022-11-23T11:13:43;98966.25;;;4.45;100.00
71145;BME280;58812;47.698;17.726;2022-11-23T11:16:25;98966.50;;;4.42;100.00
71145;BME280;58812;47.698;17.726;2022-11-23T11:18:52;98964.56;;;4.34;100.00
71145;BME280;58812;47.698;17.726;2022-11-23T11:21:40;98966.91;;;4.37;100.00
71145;BME280;58812;47.698;17.726;2022-11-23T11:24:15;98962.34;;;4.39;100.00
71145;BME280;58812;47.698;17.726;2022-11-23T11:26:56;98976.00;;;4.35;100.00
71145;BME280;58812;47.698;17.726;2022-11-23T11:34:58;98971.78;;;4.32;100.00
71145;BME280;58812;47.698;17.726;2022-11-23T11:45:46;98976.94;;;4.43;100.00
71145;BME280;58812;47.698;17.726;2022-11-23T11:48:16;98973.75;;;4.49;100.00
71145;BME280;58812;47.698;17.726;2022-11-23T11:51:23;98971.94;;;4.50;100.00
71145;BME280;58812;47.698;17.726;2022-11-23T11:56:23;98965.78;;;4.49;100.00
71145;BME280;58812;47.698;17.726;2022-11-23T11:59:06;98957.84;;;4.49;100.00
71145;BME280;58812;47.698;17.726;2022-11-23T12:01:39;98966.09;;;4.46;100.00
71145;BME280;58812;47.698;17.726;2022-11-23T12:04:15;98968.59;;;4.48;100.00
71145;BME280;58812;47.698;17.726;2022-11-23T12:06:49;98966.50;;;4.42;100.00
71145;BME280;58812;47.698;17.726;2022-11-23T12:09:23;98963.69;;;4.43;100.00
71145;BME280;58812;47.698;17.726;2022-11-23T12:11:51;98963.44;;;4.46;100.00
71145;BME280;58812;47.698;17.726;2022-11-23T12:14:16;98967.91;;;4.46;100.00
71145;BME280;58812;47.698;17.726;2022-11-23T12:17:05;98966.78;;;4.48;100.00
71145;BME280;58812;47.698;17.726;2022-11-23T12:19:38;98970.41;;;4.47;100.00
71145;BME280;58812;47.698;17.726;2022-11-23T12:22:41;98969.00;;;4.43;100.00
71145;BME280;58812;47.698;17.726;2022-11-23T12:25:28;98976.25;;;4.41;100.00
71145;BME280;58812;47.698;17.726;2022-11-23T12:36:35;98972.63;;;4.62;100.00
71145;BME280;58812;47.698;17.726;2022-11-23T12:49:44;98973.75;;;4.49;100.00
71145;BME280;58812;47.698;17.726;2022-11-23T12:57:38;98980.16;;;4.47;100.00
71145;BME280;58812;47.698;17.726;2022-11-23T13:00:13;98998.56;;;4.48;100.00
71145;BME280;58812;47.698;17.726;2022-11-23T13:03:28;98987.84;;;4.40;100.00
71145;BME280;58812;47.698;17.726;2022-11-23T13:06:05;98999.28;;;4.41;100.00
71145;BME280;58812;47.698;17.726;2022-11-23T13:08:59;98998.00;;;4.35;100.00
71145;BME280;58812;47.698;17.726;2022-11-23T13:20:32;99004.16;;;4.36;100.00
71145;BME280;58812;47.698;17.726;2022-11-23T13:23:02;99007.63;;;4.36;100.00
71145;BME280;58812;47.698;17.726;2022-11-23T13:25:30;99005.28;;;4.33;100.00
71145;BME280;58812;47.698;17.726;2022-11-23T13:27:59;99005.00;;;4.36;100.00
71145;BME280;58812;47.698;17.726;2022-11-23T13:30:34;99011.66;;;4.31;100.00
71145;BME280;58812;47.698;17.726;2022-11-23T13:40:37;99001.38;;;4.27;100.00
71145;BME280;58812;47.698;17.726;2022-11-23T13:43:51;99005.09;;;4.25;100.00
71145;BME280;58812;47.698;17.726;2022-11-23T13:46:26;99009.16;;;4.29;100.00
71145;BME280;58812;47.698;17.726;2022-11-23T13:48:57;99010.41;;;4.25;100.00
71145;BME280;58812;47.698;17.726;2022-11-23T13:51:30;99008.88;;;4.22;100.00
71145;BME280;58812;47.698;17.726;2022-11-23T13:54:01;99011.94;;;4.18;100.00
71145;BME280;58812;47.698;17.726;2022-11-23T13:56:40;99001.59;;;4.15;100.00
71145;BME280;58812;47.698;17.726;2022-11-23T14:04:44;99016.94;;;4.11;100.00
71145;BME280;58812;47.698;17.726;2022-11-23T14:07:23;99015.38;;;4.09;100.00
71145;BME280;58812;47.698;17.726;2022-11-23T14:10:03;99017.09;;;4.10;100.00
71145;BME280;58812;47.698;17.726;2022-11-23T14:15:02;99027.50;;;4.01;100.00
71145;BME280;58812;47.698;17.726;2022-11-23T14:28:13;99043.38;;;4.01;100.00
71145;BME280;58812;47.698;17.726;2022-11-23T14:33:32;99040.25;;;5.24;100.00
71145;BME280;58812;47.698;17.726;2022-11-23T14:36:07;99044.75;;;5.70;100.00
71145;BME280;58812;47.698;17.726;2022-11-23T14:38:57;99044.56;;;5.25;100.00
71145;BME280;58812;47.698;17.726;2022-11-23T14:41:30;99042.38;;;6.04;100.00
71145;BME280;58812;47.698;17.726;2022-11-23T14:43:59;99045.09;;;5.95;100.00